createdAt,value
2022-08-26T00:04:59.248Z,22.10
2022-08-26T00:10:01.017Z,22.00
2022-08-26T00:15:03.121Z,22.00
2022-08-26T00:20:08.727Z,22.00
2022-08-26T00:25:12.113Z,21.90
2022-08-26T00:30:22.678Z,21.80
2022-08-26T00:35:26.197Z,21.70
2022-08-26T00:40:36.798Z,21.70
2022-08-26T00:46:02.726Z,21.70
2022-08-26T00:51:18.387Z,21.60
2022-08-26T00:56:31.238Z,21.60
2022-08-26T01:01:33.474Z,21.60
2022-08-26T01:06:35.459Z,21.60
2022-08-26T01:11:37.424Z,21.50
2022-08-26T01:16:39.567Z,21.40
2022-08-26T01:22:13.934Z,21.40
2022-08-26T01:27:19.171Z,21.40
2022-08-26T01:32:23.345Z,21.30
2022-08-26T01:37:32.540Z,21.30
2022-08-26T01:42:34.418Z,21.30
2022-08-26T01:47:37.772Z,21.20
2022-08-26T01:52:43.186Z,21.20
2022-08-26T01:57:47.457Z,21.10
2022-08-26T02:03:14.648Z,21.10
2022-08-26T02:08:22.732Z,21.00
2022-08-26T02:13:30.007Z,21.10
2022-08-26T02:18:35.034Z,21.10
2022-08-26T02:23:38.659Z,21.20
2022-08-26T02:28:50.382Z,21.20
2022-08-26T02:33:52.118Z,21.30
2022-08-26T02:38:53.854Z,21.20
2022-08-26T02:43:57.509Z,21.20
2022-08-26T02:49:01.209Z,21.30
2022-08-26T02:54:03.299Z,21.30
2022-08-26T02:59:06.118Z,21.20
2022-08-26T03:04:11.417Z,21.20
2022-08-26T03:09:13.993Z,21.20
2022-08-26T03:14:20.879Z,21.20
2022-08-26T03:19:24.415Z,21.20
2022-08-26T03:24:26.722Z,21.10
2022-08-26T03:29:50.429Z,21.10
2022-08-26T03:34:52.926Z,21.00
2022-08-26T03:39:54.651Z,20.90
2022-08-26T03:44:57.132Z,20.80
2022-08-26T03:49:59.237Z,20.80
2022-08-26T03:55:01.413Z,20.70
2022-08-26T04:00:08.387Z,20.70
2022-08-26T04:05:10.969Z,20.70
2022-08-26T04:10:17.465Z,20.60
2022-08-26T04:15:22.366Z,20.60
2022-08-26T04:20:24.399Z,20.60
2022-08-26T04:25:27.213Z,20.60
2022-08-26T04:30:29.303Z,20.50
2022-08-26T04:35:31.693Z,20.50
2022-08-26T04:40:33.880Z,20.50
2022-08-26T04:45:37.896Z,20.60
2022-08-26T04:50:40.524Z,20.70
2022-08-26T04:55:45.062Z,20.90
2022-08-26T05:00:49.095Z,21.00
2022-08-26T05:05:51.567Z,21.00
2022-08-26T05:10:56.069Z,21.00
2022-08-26T05:16:02.246Z,21.10
2022-08-26T05:21:04.637Z,21.30
2022-08-26T05:26:08.517Z,21.50
2022-08-26T05:31:18.299Z,21.50
2022-08-26T05:36:26.889Z,21.60
2022-08-26T05:41:36.496Z,21.70
2022-08-26T05:46:44.784Z,21.80
2022-08-26T05:51:47.766Z,22.00
2022-08-26T05:56:51.425Z,22.20
2022-08-26T06:01:54.560Z,22.40
2022-08-26T06:06:57.010Z,22.40
2022-08-26T06:11:58.845Z,22.50
2022-08-26T06:17:00.780Z,22.50
2022-08-26T06:22:23.465Z,22.50
2022-08-26T06:27:29.404Z,22.40
2022-08-26T06:32:34.246Z,22.50
2022-08-26T06:37:35.970Z,22.60
2022-08-26T06:42:38.162Z,22.70
2022-08-26T06:47:40.977Z,22.80
2022-08-26T06:52:42.771Z,22.70
2022-08-26T06:57:44.457Z,22.80
2022-08-26T07:02:47.811Z,22.80
2022-08-26T07:07:50.492Z,22.70
2022-08-26T07:12:52.352Z,22.90
2022-08-26T07:17:54.932Z,23.10
2022-08-26T07:22:58.892Z,23.30
2022-08-26T07:28:00.635Z,23.40
2022-08-26T07:33:05.293Z,23.40
2022-08-26T07:38:07.076Z,23.70
2022-08-26T07:43:09.760Z,24.00
2022-08-26T07:48:12.246Z,24.00
2022-08-26T07:53:14.984Z,23.90
2022-08-26T07:58:20.063Z,24.00
2022-08-26T08:03:22.156Z,24.00
2022-08-26T08:08:27.652Z,24.00
2022-08-26T08:13:30.958Z,24.20
2022-08-26T08:18:33.613Z,24.30
2022-08-26T08:23:35.547Z,24.60
2022-08-26T08:28:38.968Z,24.90
2022-08-26T08:33:40.674Z,25.00
2022-08-26T08:38:44.446Z,25.30
2022-08-26T08:43:47.431Z,26.20
2022-08-26T08:48:57.226Z,26.70
2022-08-26T08:54:01.692Z,26.60
2022-08-26T08:59:21.599Z,26.20
2022-08-26T09:04:51.550Z,26.00
2022-08-26T09:10:04.934Z,26.00
2022-08-26T09:15:40.173Z,26.10
2022-08-26T09:20:59.515Z,26.20
2022-08-26T09:26:25.891Z,26.20
2022-08-26T09:31:35.939Z,26.30
2022-08-26T09:36:44.990Z,26.50
2022-08-26T09:42:04.457Z,26.40
2022-08-26T09:47:08.655Z,26.70
2022-08-26T09:52:22.007Z,26.80
2022-08-26T09:57:30.034Z,26.80
2022-08-26T10:02:32.510Z,27.00
2022-08-26T10:07:45.712Z,27.30
2022-08-26T10:13:11.998Z,27.40
2022-08-26T10:18:21.873Z,27.50
2022-08-26T10:23:27.347Z,27.70
2022-08-26T10:28:51.002Z,27.80
2022-08-26T10:33:57.984Z,27.70
2022-08-26T10:39:04.944Z,27.90
2022-08-26T10:44:10.590Z,28.20
2022-08-26T10:49:15.421Z,28.20
2022-08-26T10:54:39.652Z,28.10
2022-08-26T11:00:31.425Z,28.30
2022-08-26T11:05:33.371Z,28.50
2022-08-26T11:10:53.915Z,28.70
2022-08-26T11:15:55.816Z,29.00
2022-08-26T11:20:57.492Z,29.60
2022-08-26T11:25:59.744Z,30.00
2022-08-26T11:31:02.891Z,30.40
2022-08-26T11:36:12.133Z,30.80
2022-08-26T11:41:21.208Z,30.90
2022-08-26T11:46:30.317Z,30.90
2022-08-26T11:51:35.900Z,31.20
2022-08-26T11:56:42.150Z,31.30
2022-08-26T12:01:48.636Z,30.90
2022-08-26T12:06:52.145Z,30.20
2022-08-26T12:12:15.358Z,29.20
2022-08-26T12:17:25.867Z,28.60
2022-08-26T12:22:34.556Z,28.10
2022-08-26T12:27:43.258Z,27.50
2022-08-26T12:32:57.138Z,27.10
2022-08-26T12:38:00.738Z,26.90
2022-08-26T12:43:05.301Z,27.00
2022-08-26T12:48:13.652Z,26.90
2022-08-26T12:53:26.468Z,26.50
2022-08-26T12:58:33.930Z,25.90
2022-08-26T13:03:37.423Z,26.00
2022-08-26T13:09:08.695Z,26.10
2022-08-26T13:14:24.197Z,25.90
2022-08-26T13:19:26.279Z,26.00
2022-08-26T13:24:38.428Z,26.10
2022-08-26T13:29:40.349Z,26.20
2022-08-26T13:34:42.734Z,26.40
2022-08-26T13:39:44.530Z,26.60
2022-08-26T13:44:50.564Z,26.50
2022-08-26T13:49:52.292Z,26.00
2022-08-26T13:54:54.068Z,25.90
2022-08-26T13:59:58.959Z,25.80
2022-08-26T14:05:01.058Z,25.40
2022-08-26T14:10:03.607Z,25.30
2022-08-26T14:15:06.227Z,25.10
2022-08-26T14:20:11.962Z,24.90
2022-08-26T14:25:14.559Z,24.70
2022-08-26T14:30:17.809Z,24.60
2022-08-26T14:35:23.661Z,24.60
2022-08-26T14:40:30.600Z,24.80
2022-08-26T14:45:36.680Z,25.10
2022-08-26T14:50:38.700Z,25.30
2022-08-26T14:55:41.828Z,25.50
2022-08-26T15:00:43.866Z,25.80
2022-08-26T15:05:48.023Z,26.00
2022-08-26T15:10:50.801Z,26.20
2022-08-26T15:15:52.637Z,26.20
2022-08-26T15:20:54.560Z,25.90
2022-08-26T15:25:56.425Z,26.10
2022-08-26T15:30:58.264Z,26.30
2022-08-26T15:36:01.882Z,26.10
2022-08-26T15:41:06.349Z,26.00
2022-08-26T15:46:11.883Z,25.90
2022-08-26T15:51:25.601Z,26.30
2022-08-26T15:56:29.692Z,26.60
2022-08-26T16:01:32.110Z,26.60
2022-08-26T16:06:37.281Z,26.70
2022-08-26T16:11:39.030Z,26.60
2022-08-26T16:16:41.548Z,26.50
2022-08-26T16:21:43.705Z,26.70
2022-08-26T16:26:45.473Z,26.40
2022-08-26T16:31:47.728Z,25.90
2022-08-26T16:36:49.457Z,25.80
2022-08-26T16:41:51.204Z,25.60
2022-08-26T16:46:58.718Z,25.30
2022-08-26T16:52:00.624Z,25.20
2022-08-26T16:57:02.452Z,25.10
2022-08-26T17:02:04.962Z,25.00
2022-08-26T17:07:07.015Z,25.00
2022-08-26T17:12:09.215Z,24.90
2022-08-26T17:17:11.019Z,24.80
2022-08-26T17:22:13.262Z,24.70
2022-08-26T17:27:15.219Z,24.80
2022-08-26T17:32:16.923Z,24.50
2022-08-26T17:37:18.691Z,24.30
2022-08-26T17:42:20.402Z,24.30
2022-08-26T17:47:22.089Z,24.20
2022-08-26T17:52:23.876Z,24.30
2022-08-26T17:57:26.087Z,24.10
2022-08-26T18:07:33.487Z,23.90
2022-08-26T18:12:46.101Z,23.80
2022-08-26T18:17:47.820Z,23.80
2022-08-26T18:22:49.551Z,23.70
2022-08-26T18:27:51.641Z,23.40
2022-08-26T18:32:53.386Z,23.30
2022-08-26T18:37:56.567Z,23.30
2022-08-26T18:42:58.467Z,23.20
2022-08-26T18:48:02.033Z,23.10
2022-08-26T18:53:03.735Z,23.20
2022-08-26T18:58:05.599Z,23.10
2022-08-26T19:03:08.331Z,23.10
2022-08-26T19:08:20.708Z,23.00
2022-08-26T19:13:22.489Z,22.90
2022-08-26T19:18:24.215Z,22.90
2022-08-26T19:23:31.838Z,22.90
2022-08-26T19:28:35.245Z,22.90
2022-08-26T19:33:39.295Z,22.80
2022-08-26T19:38:41.719Z,22.90
2022-08-26T19:43:43.779Z,22.90
2022-08-26T19:48:51.762Z,22.90
2022-08-26T19:53:58.907Z,22.90
2022-08-26T19:59:01.249Z,22.80
2022-08-26T20:04:04.165Z,22.70
2022-08-26T20:09:05.980Z,22.60
2022-08-26T20:14:07.784Z,22.60
2022-08-26T20:19:28.116Z,22.60
2022-08-26T20:24:30.022Z,22.50
2022-08-26T20:29:32.363Z,22.50
2022-08-26T20:34:35.752Z,22.30
2022-08-26T20:39:37.745Z,22.30
2022-08-26T20:44:40.264Z,22.20
2022-08-26T20:49:52.553Z,22.10
2022-08-26T20:54:54.620Z,22.10
2022-08-26T20:59:56.640Z,22.00
2022-08-26T21:04:58.522Z,22.00
2022-08-26T21:10:00.692Z,21.90
2022-08-26T21:15:02.886Z,21.90
2022-08-26T21:20:05.361Z,21.90
2022-08-26T21:25:07.860Z,21.90
2022-08-26T21:30:10.196Z,21.90
2022-08-26T21:35:11.974Z,21.90
2022-08-26T21:40:13.825Z,21.80
2022-08-26T21:45:15.623Z,21.80
2022-08-26T21:50:17.439Z,21.80
2022-08-26T21:55:19.240Z,21.80
2022-08-26T22:00:21.201Z,21.70
2022-08-26T22:05:22.938Z,21.60
2022-08-26T22:10:24.704Z,21.60
2022-08-26T22:15:27.865Z,21.50
2022-08-26T22:20:31.138Z,21.40
2022-08-26T22:25:33.022Z,21.30
2022-08-26T22:30:37.468Z,21.30
2022-08-26T22:35:41.182Z,21.20
2022-08-26T22:40:45.508Z,21.20
2022-08-26T22:45:49.377Z,21.10
2022-08-26T22:50:54.504Z,21.00
2022-08-26T22:55:59.023Z,21.00
2022-08-26T23:01:04.066Z,21.00
2022-08-26T23:06:10.392Z,20.90
2022-08-26T23:11:13.589Z,20.90
2022-08-26T23:16:15.384Z,20.90
2022-08-26T23:21:17.278Z,20.80
2022-08-26T23:26:19.024Z,20.90
2022-08-26T23:31:20.853Z,20.90
2022-08-26T23:36:22.985Z,20.90
2022-08-26T23:41:25.620Z,20.90
2022-08-26T23:46:27.431Z,21.00
2022-08-26T23:51:47.589Z,21.00
2022-08-26T23:56:50.499Z,21.00
